createdAt,value
2023-03-13T00:00:00.000Z,7.05
2023-03-13T00:15:00.000Z,7.11
2023-03-13T00:30:00.000Z,7.08
2023-03-13T00:45:00.000Z,7.21
2023-03-13T01:00:00.000Z,7.24
2023-03-13T01:15:00.000Z,7.3
2023-03-13T01:30:00.000Z,7.16
2023-03-13T01:45:00.000Z,7.13
2023-03-13T02:00:00.000Z,7.09
2023-03-13T02:15:00.000Z,6.94
2023-03-13T02:30:00.000Z,6.64
2023-03-13T02:45:00.000Z,6.88
2023-03-13T03:00:00.000Z,5
2023-03-13T03:15:00.000Z,4.36
2023-03-13T03:30:00.000Z,4.62
2023-03-13T03:45:00.000Z,4.26
2023-03-13T04:00:00.000Z,4.2
2023-03-13T04:15:00.000Z,4.05
2023-03-13T04:30:00.000Z,4.09
2023-03-13T04:45:00.000Z,3.94
2023-03-13T05:00:00.000Z,3.88
2023-03-13T05:15:00.000Z,3.88
2023-03-13T05:30:00.000Z,4.14
2023-03-13T05:45:00.000Z,3.95
2023-03-13T06:00:00.000Z,4.11
2023-03-13T06:15:00.000Z,5.92
2023-03-13T06:30:00.000Z,5.01
2023-03-13T06:45:00.000Z,4.19
2023-03-13T07:00:00.000Z,4.21
2023-03-13T07:15:00.000Z,3.39
2023-03-13T07:30:00.000Z,2.62
2023-03-13T07:45:00.000Z,1.95
2023-03-13T08:00:00.000Z,1.98
2023-03-13T08:15:00.000Z,2
2023-03-13T08:30:00.000Z,1.54
2023-03-13T08:45:00.000Z,1.94
2023-03-13T09:00:00.000Z,1.44
2023-03-13T09:15:00.000Z,1.4
2023-03-13T09:30:00.000Z,1.66
2023-03-13T09:45:00.000Z,1.42
2023-03-13T10:00:00.000Z,1.45
2023-03-13T10:15:00.000Z,1.88
2023-03-13T10:30:00.000Z,1.56
2023-03-13T10:45:00.000Z,1.41
2023-03-13T11:00:00.000Z,1.91
2023-03-13T11:15:00.000Z,1.49
2023-03-13T11:30:00.000Z,1.6
2023-03-13T11:45:00.000Z,1.36
2023-03-13T12:00:00.000Z,1.15
2023-03-13T12:15:00.000Z,1.22
2023-03-13T12:30:00.000Z,1.33
2023-03-13T12:45:00.000Z,1.13
2023-03-13T13:00:00.000Z,1.16
2023-03-13T13:15:00.000Z,1.32
2023-03-13T13:30:00.000Z,1.25
2023-03-13T13:45:00.000Z,1.52
2023-03-13T14:00:00.000Z,1.98
2023-03-13T14:15:00.000Z,1.6
2023-03-13T14:30:00.000Z,2.07
2023-03-13T14:45:00.000Z,4.45
2023-03-13T15:00:00.000Z,4.61
2023-03-13T15:15:00.000Z,2.88
2023-03-13T15:30:00.000Z,2.56
2023-03-13T15:45:00.000Z,2.25
2023-03-13T16:00:00.000Z,4.51
2023-03-13T16:15:00.000Z,6.39
2023-03-13T16:30:00.000Z,26.88
2023-03-13T16:45:00.000Z,11.27
2023-03-13T17:00:00.000Z,6.78
2023-03-13T17:15:00.000Z,8.32
2023-03-13T17:30:00.000Z,21.98
2023-03-13T17:45:00.000Z,17.35
2023-03-13T18:00:00.000Z,17.47
2023-03-13T18:15:00.000Z,16.11
2023-03-13T18:30:00.000Z,17.89
2023-03-13T18:45:00.000Z,15.07
2023-03-13T19:00:00.000Z,16.31
2023-03-13T19:15:00.000Z,15.47
2023-03-13T19:30:00.000Z,9.64
2023-03-13T19:45:00.000Z,12.19
2023-03-13T20:00:00.000Z,13.73
2023-03-13T20:15:00.000Z,8.12
2023-03-13T20:30:00.000Z,8.71
2023-03-13T20:45:00.000Z,2.78
2023-03-13T21:00:00.000Z,9.32
2023-03-13T21:15:00.000Z,5.06
2023-03-13T21:30:00.000Z,5.44
2023-03-13T21:45:00.000Z,8.86
2023-03-13T22:00:00.000Z,4.67
2023-03-13T22:15:00.000Z,4.18
2023-03-13T22:30:00.000Z,3.36
2023-03-13T22:45:00.000Z,2.36
2023-03-13T23:00:00.000Z,2.71
2023-03-13T23:15:00.000Z,2.65
2023-03-13T23:30:00.000Z,2.41
2023-03-13T23:45:00.000Z,3.86
